createdAt,value
2022-08-05T00:00:56.233Z,21.70
2022-08-05T00:02:19.646Z,21.60
2022-08-05T00:03:23.081Z,21.60
2022-08-05T00:04:28.577Z,21.60
2022-08-05T00:06:05.447Z,21.60
2022-08-05T00:06:54.844Z,21.60
2022-08-05T00:08:01.242Z,21.60
2022-08-05T00:09:13.190Z,21.60
2022-08-05T00:10:19.517Z,21.60
2022-08-05T00:11:34.599Z,21.60
2022-08-05T00:12:56.774Z,21.60
2022-08-05T00:14:00.358Z,21.60
2022-08-05T00:15:54.184Z,21.60
2022-08-05T00:16:36.007Z,21.60
2022-08-05T00:17:55.216Z,21.50
2022-08-05T00:18:57.585Z,21.50
2022-08-05T00:20:02.578Z,21.50
2022-08-05T00:21:06.873Z,21.50
2022-08-05T00:22:12.166Z,21.50
2022-08-05T00:23:14.630Z,21.50
2022-08-05T00:24:24.663Z,21.50
2022-08-05T00:25:45.319Z,21.50
2022-08-05T00:26:51.868Z,21.50
2022-08-05T00:27:54.588Z,21.50
2022-08-05T00:28:58.898Z,21.50
2022-08-05T00:30:03.234Z,21.40
2022-08-05T00:31:08.072Z,21.50
2022-08-05T00:32:15.386Z,21.40
2022-08-05T00:34:53.949Z,21.40
2022-08-05T00:35:04.181Z,21.40
2022-08-05T00:36:14.901Z,21.40
2022-08-05T00:37:20.341Z,21.40
2022-08-05T00:38:28.846Z,21.40
2022-08-05T00:39:43.999Z,21.40
2022-08-05T00:40:51.944Z,21.40
2022-08-05T00:41:56.741Z,21.40
2022-08-05T00:43:02.130Z,21.40
2022-08-05T00:44:06.380Z,21.40
2022-08-05T00:45:13.411Z,21.40
2022-08-05T00:46:17.413Z,21.40
2022-08-05T00:47:56.250Z,21.40
2022-08-05T00:49:01.235Z,21.40
2022-08-05T00:50:07.015Z,21.30
2022-08-05T00:51:51.031Z,21.30
2022-08-05T00:52:33.491Z,21.30
2022-08-05T00:54:01.295Z,21.30
2022-08-05T00:55:08.416Z,21.30
2022-08-05T00:56:12.128Z,21.30
2022-08-05T00:57:15.324Z,21.30
2022-08-05T00:58:27.458Z,21.30
2022-08-05T00:59:42.077Z,21.30
2022-08-05T01:00:50.210Z,21.30
2022-08-05T01:01:52.927Z,21.20
2022-08-05T01:02:58.015Z,21.20
2022-08-05T01:04:04.212Z,21.20
2022-08-05T01:05:16.472Z,21.20
2022-08-05T01:06:20.411Z,21.20
2022-08-05T01:07:35.059Z,21.20
2022-08-05T01:08:43.070Z,21.20
2022-08-05T01:09:55.736Z,21.20
2022-08-05T01:11:07.427Z,21.20
2022-08-05T01:12:18.972Z,21.10
2022-08-05T01:13:57.473Z,21.20
2022-08-05T01:15:04.065Z,21.20
2022-08-05T01:16:26.089Z,21.10
2022-08-05T01:17:40.343Z,21.20
2022-08-05T01:18:56.418Z,21.10
2022-08-05T01:20:18.576Z,21.20
2022-08-05T01:21:51.598Z,21.10
2022-08-05T01:23:15.435Z,21.10
2022-08-05T01:24:45.849Z,21.10
2022-08-05T01:26:14.862Z,21.00
2022-08-05T01:27:54.853Z,21.00
2022-08-05T01:29:05.379Z,21.00
2022-08-05T01:30:17.790Z,21.00
2022-08-05T01:31:31.165Z,21.00
2022-08-05T01:32:39.074Z,21.00
2022-08-05T01:33:52.004Z,21.00
2022-08-05T01:35:03.625Z,21.00
2022-08-05T01:36:17.375Z,21.00
2022-08-05T01:37:33.748Z,21.00
2022-08-05T01:38:39.762Z,20.90
2022-08-05T01:39:50.382Z,20.90
2022-08-05T01:40:54.371Z,20.90
2022-08-05T01:41:59.982Z,20.90
2022-08-05T01:43:06.000Z,20.90
2022-08-05T01:44:11.710Z,21.00
2022-08-05T01:45:20.536Z,21.00
2022-08-05T01:46:42.716Z,21.00
2022-08-05T01:47:54.463Z,21.00
2022-08-05T01:49:01.065Z,20.90
2022-08-05T01:50:29.767Z,20.90
2022-08-05T01:51:36.298Z,20.90
2022-08-05T01:52:43.957Z,20.90
2022-08-05T01:53:57.958Z,20.90
2022-08-05T01:55:07.770Z,20.90
2022-08-05T01:56:13.529Z,20.80
2022-08-05T01:58:29.854Z,20.80
2022-08-05T01:59:12.041Z,20.80
2022-08-05T02:00:16.633Z,20.80
2022-08-05T02:01:23.255Z,20.80
2022-08-05T02:02:32.366Z,20.80
2022-08-05T02:03:43.883Z,20.80
2022-08-05T02:04:49.791Z,20.70
2022-08-05T02:05:59.640Z,20.70
2022-08-05T02:07:04.026Z,20.70
2022-08-05T02:08:08.898Z,20.70
2022-08-05T02:09:14.641Z,20.70
2022-08-05T02:10:18.856Z,20.70
2022-08-05T02:11:47.934Z,20.70
2022-08-05T02:13:01.687Z,20.70
2022-08-05T02:14:16.999Z,20.70
2022-08-05T02:15:25.706Z,20.70
2022-08-05T02:16:46.582Z,20.70
2022-08-05T02:18:33.341Z,20.60
2022-08-05T02:19:34.757Z,20.60
2022-08-05T02:20:47.009Z,20.60
2022-08-05T02:21:58.894Z,20.50
2022-08-05T02:23:08.831Z,20.50
2022-08-05T02:24:23.388Z,20.50
2022-08-05T02:25:33.430Z,20.50
2022-08-05T02:26:53.688Z,20.50
2022-08-05T02:28:00.523Z,20.50
2022-08-05T02:29:04.705Z,20.40
2022-08-05T02:30:12.765Z,20.40
2022-08-05T02:31:22.668Z,20.40
2022-08-05T02:32:29.434Z,20.40
2022-08-05T02:33:40.670Z,20.30
2022-08-05T02:34:44.055Z,20.30
2022-08-05T02:36:01.357Z,20.30
2022-08-05T02:37:08.758Z,20.20
2022-08-05T02:38:13.537Z,20.10
2022-08-05T02:39:24.177Z,20.10
2022-08-05T02:40:27.893Z,20.10
2022-08-05T02:41:42.964Z,20.10
2022-08-05T02:42:58.085Z,20.10
2022-08-05T02:44:11.145Z,20.10
2022-08-05T02:45:18.800Z,20.10
2022-08-05T02:46:27.729Z,20.10
2022-08-05T02:48:06.292Z,20.10
2022-08-05T02:48:58.237Z,20.10
2022-08-05T02:50:03.060Z,20.10
2022-08-05T02:51:06.742Z,20.10
2022-08-05T02:52:29.966Z,20.10
2022-08-05T02:53:39.456Z,20.10
2022-08-05T02:54:50.758Z,20.10
2022-08-05T02:56:00.313Z,20.10
2022-08-05T02:57:10.124Z,20.10
2022-08-05T02:58:33.053Z,20.10
2022-08-05T02:59:50.296Z,20.00
2022-08-05T03:00:57.655Z,19.90
2022-08-05T03:02:01.613Z,19.90
2022-08-05T03:03:07.588Z,19.90
2022-08-05T03:04:15.772Z,19.80
2022-08-05T03:05:21.846Z,19.90
2022-08-05T03:06:56.336Z,19.90
2022-08-05T03:08:08.522Z,19.90
2022-08-05T03:09:17.660Z,19.90
2022-08-05T03:10:31.119Z,19.90
2022-08-05T03:11:56.477Z,19.90
2022-08-05T03:14:03.311Z,19.90
2022-08-05T03:15:12.231Z,20.00
2022-08-05T03:16:16.664Z,20.00
2022-08-05T03:17:23.663Z,20.00
2022-08-05T03:18:29.851Z,19.90
2022-08-05T03:19:36.010Z,19.90
2022-08-05T03:20:39.047Z,19.90
2022-08-05T03:21:52.136Z,19.90
2022-08-05T03:22:57.701Z,19.90
2022-08-05T03:24:02.429Z,19.90
2022-08-05T03:25:34.137Z,19.90
2022-08-05T03:26:31.974Z,19.90
2022-08-05T03:27:39.385Z,19.80
2022-08-05T03:28:59.109Z,19.90
2022-08-05T03:30:08.765Z,19.80
2022-08-05T03:31:55.413Z,19.80
2022-08-05T03:32:40.133Z,19.80
2022-08-05T03:33:52.717Z,19.80
2022-08-05T03:34:56.609Z,19.80
2022-08-05T03:35:59.929Z,19.80
2022-08-05T03:37:05.127Z,19.80
2022-08-05T03:38:08.368Z,19.80
2022-08-05T03:39:13.163Z,19.80
2022-08-05T03:40:31.422Z,19.80
2022-08-05T03:41:38.791Z,19.80
2022-08-05T03:42:51.519Z,19.90
2022-08-05T03:44:10.042Z,19.80
2022-08-05T03:45:22.669Z,19.80
2022-08-05T03:46:30.032Z,19.80
2022-08-05T03:47:41.414Z,19.80
2022-08-05T03:48:46.688Z,19.80
2022-08-05T03:49:52.106Z,19.80
2022-08-05T03:52:37.634Z,19.80
2022-08-05T03:54:59.412Z,19.80
2022-08-05T03:55:53.147Z,19.80
2022-08-05T03:56:09.371Z,19.70
2022-08-05T03:57:01.691Z,19.70
2022-08-05T03:58:29.065Z,19.70
2022-08-05T03:59:47.644Z,19.70
2022-08-05T04:01:00.886Z,19.70
2022-08-05T04:02:04.713Z,19.70
2022-08-05T04:03:15.040Z,19.70
2022-08-05T04:04:33.632Z,19.70
2022-08-05T04:05:40.211Z,19.70
2022-08-05T04:06:47.956Z,19.70
2022-08-05T04:07:58.720Z,19.70
2022-08-05T04:09:05.933Z,19.70
2022-08-05T04:10:10.565Z,19.70
2022-08-05T04:11:21.311Z,19.60
2022-08-05T04:12:25.540Z,19.60
2022-08-05T04:13:50.336Z,19.60
2022-08-05T04:14:53.999Z,19.60
2022-08-05T04:16:04.290Z,19.60
2022-08-05T04:17:12.094Z,19.60
2022-08-05T04:18:17.261Z,19.50
2022-08-05T04:19:25.993Z,19.50
2022-08-05T04:20:30.221Z,19.50
2022-08-05T04:22:08.714Z,19.50
2022-08-05T04:22:57.531Z,19.50
2022-08-05T04:24:05.783Z,19.50
2022-08-05T04:25:10.947Z,19.50
2022-08-05T04:26:17.404Z,19.40
2022-08-05T04:27:41.751Z,19.40
2022-08-05T04:28:51.229Z,19.40
2022-08-05T04:29:54.530Z,19.30
2022-08-05T04:30:58.034Z,19.30
2022-08-05T04:32:03.449Z,19.30
2022-08-05T04:33:07.080Z,19.30
2022-08-05T04:34:18.343Z,19.30
2022-08-05T04:35:26.875Z,19.30
2022-08-05T04:36:50.533Z,19.30
2022-08-05T04:38:01.206Z,19.30
2022-08-05T04:39:05.535Z,19.30
2022-08-05T04:40:11.688Z,19.20
2022-08-05T04:41:14.070Z,19.20
2022-08-05T04:42:17.489Z,19.20
2022-08-05T04:43:21.884Z,19.20
2022-08-05T04:44:29.509Z,19.20
2022-08-05T04:45:49.008Z,19.20
2022-08-05T04:46:57.452Z,19.20
2022-08-05T04:48:06.365Z,19.20
2022-08-05T04:49:15.189Z,19.20
2022-08-05T04:50:37.631Z,19.20
2022-08-05T04:51:43.605Z,19.10
2022-08-05T04:52:46.137Z,19.10
2022-08-05T04:53:51.514Z,19.10
2022-08-05T04:54:56.933Z,19.10
2022-08-05T04:56:32.400Z,19.10
2022-08-05T04:57:24.047Z,19.10
2022-08-05T04:58:31.750Z,19.10
2022-08-05T04:59:40.456Z,19.10
2022-08-05T05:00:43.650Z,19.00
2022-08-05T05:02:35.329Z,19.10
2022-08-05T05:03:20.280Z,19.00
2022-08-05T05:04:24.261Z,19.00
2022-08-05T05:05:29.530Z,19.00
2022-08-05T05:06:35.842Z,19.00
2022-08-05T05:07:45.792Z,19.10
2022-08-05T05:08:57.626Z,19.10
2022-08-05T05:10:04.517Z,19.10
2022-08-05T05:11:07.843Z,19.10
2022-08-05T05:12:11.791Z,19.10
2022-08-05T05:13:17.564Z,19.00
2022-08-05T05:14:28.170Z,19.10
2022-08-05T05:15:57.087Z,19.10
2022-08-05T05:16:58.796Z,19.10
2022-08-05T05:18:01.401Z,19.10
2022-08-05T05:19:18.853Z,19.10
2022-08-05T05:20:23.871Z,19.10
2022-08-05T05:21:33.131Z,19.10
2022-08-05T05:22:36.054Z,19.10
2022-08-05T05:24:02.731Z,19.00
2022-08-05T05:25:16.765Z,19.10
2022-08-05T05:26:28.525Z,19.00
2022-08-05T05:27:44.348Z,19.00
2022-08-05T05:28:48.410Z,19.00
2022-08-05T05:30:04.091Z,19.00
2022-08-05T05:31:08.822Z,19.00
2022-08-05T05:32:12.639Z,19.00
2022-08-05T05:33:23.509Z,19.00
2022-08-05T05:34:27.277Z,19.00
2022-08-05T05:35:37.643Z,19.00
2022-08-05T05:36:43.142Z,19.10
2022-08-05T05:37:59.954Z,19.10
2022-08-05T05:39:05.531Z,19.10
2022-08-05T05:40:16.278Z,19.10
2022-08-05T05:41:23.228Z,19.10
2022-08-05T05:42:26.357Z,19.10
2022-08-05T05:43:57.957Z,19.10
2022-08-05T05:44:52.251Z,19.10
2022-08-05T05:46:03.828Z,19.20
2022-08-05T05:47:21.337Z,19.20
2022-08-05T05:48:27.546Z,19.30
2022-08-05T05:49:30.277Z,19.30
2022-08-05T05:50:44.042Z,19.40
2022-08-05T05:51:50.091Z,19.40
2022-08-05T05:52:54.379Z,19.50
2022-08-05T05:53:59.791Z,19.50
2022-08-05T05:55:13.123Z,19.60
2022-08-05T05:56:16.857Z,19.70
2022-08-05T05:57:51.961Z,19.70
2022-08-05T05:58:56.477Z,19.80
2022-08-05T05:59:59.938Z,19.90
2022-08-05T06:01:12.719Z,20.00
2022-08-05T06:02:17.165Z,20.00
2022-08-05T06:03:54.161Z,20.10
2022-08-05T06:05:01.229Z,20.20
2022-08-05T06:06:08.942Z,20.20
2022-08-05T06:07:11.823Z,20.30
2022-08-05T06:08:32.363Z,20.40
2022-08-05T06:09:59.897Z,20.40
2022-08-05T06:10:59.399Z,20.50
2022-08-05T06:12:03.154Z,20.50
2022-08-05T06:13:07.132Z,20.60
2022-08-05T06:14:10.729Z,20.70
2022-08-05T06:15:23.988Z,20.70
2022-08-05T06:16:36.602Z,20.80
2022-08-05T06:17:53.565Z,20.80
2022-08-05T06:18:57.162Z,20.90
2022-08-05T06:20:06.053Z,20.90
2022-08-05T06:21:22.581Z,21.00
2022-08-05T06:22:30.167Z,21.00
2022-08-05T06:23:44.021Z,21.10
2022-08-05T06:24:48.361Z,21.20
2022-08-05T06:26:13.208Z,21.30
2022-08-05T06:28:08.734Z,21.30
2022-08-05T06:28:39.130Z,21.40
2022-08-05T06:29:49.268Z,21.50
2022-08-05T06:30:57.881Z,21.60
2022-08-05T06:32:00.259Z,21.70
2022-08-05T06:33:09.795Z,21.70
2022-08-05T06:34:15.835Z,21.80
2022-08-05T06:36:04.116Z,21.80
2022-08-05T06:36:57.974Z,21.90
2022-08-05T06:38:05.556Z,21.90
2022-08-05T06:39:13.890Z,22.00
2022-08-05T06:40:18.225Z,22.00
2022-08-05T06:41:24.982Z,22.10
2022-08-05T06:42:28.001Z,22.10
2022-08-05T06:43:58.727Z,22.20
2022-08-05T06:44:55.286Z,22.20
2022-08-05T06:46:06.418Z,22.30
2022-08-05T06:47:30.096Z,22.30
2022-08-05T06:48:47.200Z,22.30
2022-08-05T06:50:01.582Z,22.40
2022-08-05T06:51:09.930Z,22.40
2022-08-05T06:52:36.701Z,22.20
2022-08-05T06:53:39.893Z,22.30
2022-08-05T06:54:42.272Z,22.30
2022-08-05T06:55:46.182Z,22.20
2022-08-05T06:56:55.083Z,22.30
2022-08-05T06:58:29.030Z,22.40
2022-08-05T06:59:38.538Z,22.50
2022-08-05T07:00:44.840Z,22.50
2022-08-05T07:01:53.068Z,22.50
2022-08-05T07:02:56.053Z,22.40
2022-08-05T07:03:59.656Z,22.30
2022-08-05T07:05:02.109Z,22.40
2022-08-05T07:06:14.157Z,22.40
2022-08-05T07:07:23.874Z,22.50
2022-08-05T07:08:38.608Z,22.50
2022-08-05T07:09:45.338Z,22.40
2022-08-05T07:10:59.114Z,22.50
2022-08-05T07:12:02.511Z,22.60
2022-08-05T07:13:57.022Z,22.80
2022-08-05T07:15:04.179Z,22.90
2022-08-05T07:17:57.117Z,22.90
2022-08-05T07:18:01.694Z,23.00
2022-08-05T07:19:12.206Z,22.90
2022-08-05T07:20:37.116Z,22.80
2022-08-05T07:22:00.323Z,22.80
2022-08-05T07:23:06.512Z,22.70
2022-08-05T07:24:11.183Z,22.50
2022-08-05T07:25:54.404Z,22.50
2022-08-05T07:26:37.961Z,22.40
2022-08-05T07:27:57.490Z,22.30
2022-08-05T07:29:03.417Z,22.30
2022-08-05T07:30:25.347Z,22.30
2022-08-05T07:31:40.975Z,22.40
2022-08-05T07:32:54.655Z,22.50
2022-08-05T07:33:59.878Z,22.70
2022-08-05T07:36:05.299Z,22.80
2022-08-05T07:36:25.859Z,23.00
2022-08-05T07:37:37.606Z,23.10
2022-08-05T07:38:44.687Z,23.30
2022-08-05T07:40:26.191Z,23.40
2022-08-05T07:42:14.223Z,23.60
2022-08-05T07:42:42.103Z,23.70
2022-08-05T07:43:47.683Z,23.80
2022-08-05T07:44:51.087Z,23.90
2022-08-05T07:45:57.479Z,24.00
2022-08-05T07:47:01.823Z,24.00
2022-08-05T07:48:10.543Z,24.00
2022-08-05T07:49:14.441Z,24.10
2022-08-05T07:50:23.699Z,24.20
2022-08-05T07:51:40.671Z,24.40
2022-08-05T07:52:56.144Z,24.40
2022-08-05T07:54:01.963Z,24.50
2022-08-05T07:55:15.682Z,24.60
2022-08-05T07:57:00.323Z,24.60
2022-08-05T07:58:02.132Z,24.50
2022-08-05T07:59:08.473Z,24.30
2022-08-05T08:00:15.196Z,24.10
2022-08-05T08:01:21.970Z,24.10
2022-08-05T08:02:30.792Z,23.90
2022-08-05T08:03:44.311Z,24.00
2022-08-05T08:04:49.764Z,24.00
2022-08-05T08:05:52.378Z,24.20
2022-08-05T08:06:58.994Z,24.40
2022-08-05T08:08:01.360Z,24.50
2022-08-05T08:09:06.749Z,24.50
2022-08-05T08:10:09.718Z,24.60
2022-08-05T08:11:13.770Z,24.50
2022-08-05T08:12:35.102Z,24.40
2022-08-05T08:14:00.466Z,24.40
2022-08-05T08:15:13.906Z,24.30
2022-08-05T08:16:34.532Z,24.40
2022-08-05T08:17:52.974Z,24.50
2022-08-05T08:18:58.688Z,24.60
2022-08-05T08:20:42.336Z,24.60
2022-08-05T08:21:26.976Z,24.60
2022-08-05T08:22:29.864Z,24.70
2022-08-05T08:24:02.013Z,24.90
2022-08-05T08:25:03.151Z,25.00
2022-08-05T08:26:07.962Z,25.20
2022-08-05T08:27:16.661Z,25.30
2022-08-05T08:28:36.103Z,25.60
2022-08-05T08:30:05.425Z,25.70
2022-08-05T08:31:04.728Z,25.90
2022-08-05T08:32:07.460Z,26.10
2022-08-05T08:33:15.048Z,26.30
2022-08-05T08:34:18.742Z,26.40
2022-08-05T08:35:35.103Z,26.60
2022-08-05T08:36:50.564Z,26.60
2022-08-05T08:37:59.194Z,26.40
2022-08-05T08:39:02.327Z,26.10
2022-08-05T08:40:09.160Z,25.80
2022-08-05T08:41:14.771Z,25.60
2022-08-05T08:42:33.964Z,25.30
2022-08-05T08:45:18.096Z,25.50
2022-08-05T08:45:19.193Z,25.30
2022-08-05T08:46:31.555Z,25.80
2022-08-05T08:48:05.481Z,26.00
2022-08-05T08:50:03.772Z,26.20
2022-08-05T08:50:52.590Z,26.50
2022-08-05T08:52:04.127Z,26.80
2022-08-05T08:53:12.320Z,27.00
2022-08-05T08:54:16.377Z,27.00
2022-08-05T08:56:03.202Z,26.90
2022-08-05T08:56:47.825Z,26.80
2022-08-05T08:57:58.520Z,26.40
2022-08-05T08:59:01.792Z,26.30
2022-08-05T09:00:16.643Z,26.40
2022-08-05T09:01:23.131Z,26.50
2022-08-05T09:02:26.900Z,26.60
2022-08-05T09:03:44.990Z,26.80
2022-08-05T09:05:16.085Z,26.70
2022-08-05T09:06:18.511Z,26.60
2022-08-05T09:07:28.925Z,26.40
2022-08-05T09:08:43.117Z,26.40
2022-08-05T09:09:46.924Z,26.50
2022-08-05T09:10:55.084Z,26.70
2022-08-05T09:12:04.625Z,26.80
2022-08-05T09:13:17.675Z,27.00
2022-08-05T09:14:58.017Z,27.10
2022-08-05T09:15:43.943Z,27.20
2022-08-05T09:16:48.820Z,27.20
2022-08-05T09:17:53.019Z,27.20
2022-08-05T09:18:55.715Z,27.20
2022-08-05T09:20:02.665Z,27.30
2022-08-05T09:21:11.749Z,27.30
2022-08-05T09:22:31.329Z,27.30
2022-08-05T09:23:43.699Z,27.40
2022-08-05T09:25:00.380Z,27.40
2022-08-05T09:26:22.215Z,27.50
2022-08-05T09:28:04.537Z,27.60
2022-08-05T09:29:04.579Z,27.60
2022-08-05T09:30:08.500Z,27.70
2022-08-05T09:32:39.163Z,27.90
2022-08-05T09:32:46.725Z,28.00
2022-08-05T09:33:52.143Z,28.10
2022-08-05T09:35:00.121Z,28.20
2022-08-05T09:36:16.442Z,28.30
2022-08-05T09:38:17.916Z,28.40
2022-08-05T09:38:59.195Z,28.50
2022-08-05T09:40:03.003Z,28.50
2022-08-05T09:41:09.890Z,28.40
2022-08-05T09:42:20.193Z,28.20
2022-08-05T09:43:40.461Z,27.90
2022-08-05T09:44:50.400Z,27.70
2022-08-05T09:46:06.278Z,27.70
2022-08-05T09:47:18.021Z,27.70
2022-08-05T09:48:27.014Z,27.70
2022-08-05T09:49:54.584Z,27.70
2022-08-05T09:50:58.852Z,27.80
2022-08-05T09:52:19.081Z,28.00
2022-08-05T09:53:54.682Z,28.20
2022-08-05T09:55:06.520Z,28.30
2022-08-05T09:56:28.299Z,28.40
2022-08-05T09:57:39.904Z,28.50
2022-08-05T09:58:59.261Z,28.60
2022-08-05T10:00:12.046Z,28.80
2022-08-05T10:01:22.476Z,28.90
2022-08-05T10:02:38.624Z,28.90
2022-08-05T10:03:59.728Z,28.80
2022-08-05T10:05:13.711Z,28.90
2022-08-05T10:06:21.365Z,28.90
2022-08-05T10:08:10.975Z,29.00
2022-08-05T10:08:53.949Z,29.00
2022-08-05T10:10:14.639Z,29.00
2022-08-05T10:11:19.375Z,29.00
2022-08-05T10:12:33.562Z,28.90
2022-08-05T10:13:47.792Z,29.00
2022-08-05T10:14:51.029Z,29.10
2022-08-05T10:16:00.458Z,29.20
2022-08-05T10:17:39.797Z,29.20
2022-08-05T10:18:38.671Z,29.30
2022-08-05T10:20:04.240Z,29.20
2022-08-05T10:21:15.808Z,29.20
2022-08-05T10:22:30.103Z,29.20
2022-08-05T10:23:58.748Z,29.20
2022-08-05T10:25:03.019Z,29.00
2022-08-05T10:26:14.443Z,28.90
2022-08-05T10:27:18.021Z,28.80
2022-08-05T10:28:30.850Z,28.70
2022-08-05T10:30:41.842Z,28.70
2022-08-05T10:32:47.404Z,28.80
2022-08-05T10:32:52.971Z,28.90
2022-08-05T10:33:54.100Z,29.00
2022-08-05T10:35:01.145Z,29.00
2022-08-05T10:36:06.471Z,29.10
2022-08-05T10:37:11.251Z,29.00
2022-08-05T10:38:17.360Z,28.90
2022-08-05T10:39:59.170Z,28.80
2022-08-05T10:41:08.267Z,28.80
2022-08-05T10:42:33.729Z,28.80
2022-08-05T10:43:56.582Z,28.90
2022-08-05T10:45:21.152Z,28.80
2022-08-05T10:46:45.856Z,28.80
2022-08-05T10:48:30.011Z,28.90
2022-08-05T10:49:16.552Z,29.00
2022-08-05T10:50:32.005Z,28.90
2022-08-05T10:51:57.746Z,28.80
2022-08-05T10:53:03.042Z,28.60
2022-08-05T10:54:28.713Z,28.50
2022-08-05T10:55:38.451Z,28.40
2022-08-05T10:56:56.591Z,28.30
2022-08-05T10:58:11.225Z,28.20
2022-08-05T11:00:03.158Z,28.10
2022-08-05T11:00:55.476Z,27.90
2022-08-05T11:02:38.371Z,27.60
2022-08-05T11:04:10.482Z,27.50
2022-08-05T11:05:18.200Z,27.50
2022-08-05T11:06:23.259Z,27.60
2022-08-05T11:08:02.529Z,27.50
2022-08-05T11:09:32.463Z,27.40
2022-08-05T11:10:50.312Z,27.20
2022-08-05T11:12:22.942Z,26.80
2022-08-05T11:13:54.923Z,26.60
2022-08-05T11:15:19.026Z,26.60
2022-08-05T11:16:33.944Z,26.60
2022-08-05T11:18:00.386Z,26.60
2022-08-05T11:20:16.613Z,26.70
2022-08-05T11:20:54.862Z,26.90
2022-08-05T11:22:49.727Z,27.00
2022-08-05T11:24:04.649Z,27.00
2022-08-05T11:26:04.215Z,26.80
2022-08-05T11:27:51.248Z,26.70
2022-08-05T11:28:56.669Z,26.60
2022-08-05T11:30:02.864Z,26.40
2022-08-05T11:31:58.420Z,26.60
2022-08-05T11:33:34.541Z,26.70
2022-08-05T11:34:54.337Z,27.00
2022-08-05T11:36:07.851Z,27.00
2022-08-05T11:38:26.327Z,27.00
2022-08-05T11:38:54.968Z,26.80
2022-08-05T11:40:03.519Z,26.50
2022-08-05T11:41:54.476Z,26.30
2022-08-05T11:42:48.391Z,26.20
2022-08-05T11:44:04.462Z,26.00
2022-08-05T11:45:23.514Z,26.00
2022-08-05T11:46:37.473Z,26.10
2022-08-05T11:47:48.746Z,26.10
2022-08-05T11:48:53.756Z,26.20
2022-08-05T11:50:00.548Z,26.20
2022-08-05T11:51:04.480Z,26.20
2022-08-05T11:52:11.741Z,26.20
2022-08-05T11:53:15.499Z,26.00
2022-08-05T11:54:33.706Z,26.00
2022-08-05T11:55:36.783Z,25.90
2022-08-05T11:56:53.905Z,25.80
2022-08-05T11:58:07.972Z,25.80
2022-08-05T11:59:17.827Z,25.70
2022-08-05T12:00:28.804Z,25.70
2022-08-05T12:01:33.846Z,25.80
2022-08-05T12:02:40.153Z,25.70
2022-08-05T12:03:55.556Z,25.80
2022-08-05T12:05:08.061Z,25.80
2022-08-05T12:06:24.617Z,25.90
2022-08-05T12:08:10.443Z,26.00
2022-08-05T12:09:00.822Z,26.00
2022-08-05T12:10:09.490Z,26.00
2022-08-05T12:11:21.138Z,26.00
2022-08-05T12:12:29.025Z,26.00
2022-08-05T12:13:48.454Z,26.10
2022-08-05T12:14:53.274Z,26.20
2022-08-05T12:15:59.618Z,26.20
2022-08-05T12:18:04.274Z,26.30
2022-08-05T12:18:38.879Z,26.40
2022-08-05T12:20:25.724Z,26.50
2022-08-05T12:21:12.733Z,26.50
2022-08-05T12:22:20.161Z,26.60
2022-08-05T12:23:22.985Z,26.70
2022-08-05T12:24:26.321Z,26.80
2022-08-05T12:25:28.805Z,26.80
2022-08-05T12:26:33.342Z,26.80
2022-08-05T12:27:36.005Z,26.80
2022-08-05T12:28:56.391Z,26.80
2022-08-05T12:30:03.343Z,26.80
2022-08-05T12:31:08.607Z,26.80
2022-08-05T12:32:13.942Z,27.00
2022-08-05T12:33:27.284Z,27.10
2022-08-05T12:34:35.731Z,27.40
2022-08-05T12:35:39.827Z,27.70
2022-08-05T12:36:47.733Z,27.90
2022-08-05T12:37:53.249Z,27.80
2022-08-05T12:38:59.402Z,27.80
2022-08-05T12:40:10.922Z,27.70
2022-08-05T12:41:16.907Z,27.50
2022-08-05T12:42:21.503Z,27.30
2022-08-05T12:43:31.982Z,27.10
2022-08-05T12:44:34.957Z,27.00
2022-08-05T12:45:48.357Z,26.80
2022-08-05T12:46:55.409Z,26.70
2022-08-05T12:48:27.457Z,26.60
2022-08-05T12:50:04.561Z,26.60
2022-08-05T12:51:21.874Z,26.80
2022-08-05T12:52:42.501Z,26.70
2022-08-05T12:53:47.500Z,26.60
2022-08-05T12:54:59.363Z,26.70
2022-08-05T12:56:35.269Z,26.70
2022-08-05T12:58:38.940Z,26.60
2022-08-05T12:59:21.070Z,26.60
2022-08-05T13:02:02.433Z,26.60
2022-08-05T13:02:07.574Z,26.60
2022-08-05T13:03:14.685Z,26.40
2022-08-05T13:04:21.218Z,26.20
2022-08-05T13:05:24.734Z,26.10
2022-08-05T13:06:51.860Z,26.10
2022-08-05T13:08:01.239Z,26.10
2022-08-05T13:09:09.093Z,26.00
2022-08-05T13:10:19.884Z,25.80
2022-08-05T13:12:01.065Z,25.80
2022-08-05T13:12:57.329Z,25.70
2022-08-05T13:14:06.302Z,25.60
2022-08-05T13:15:18.013Z,25.50
2022-08-05T13:16:27.774Z,25.50
2022-08-05T13:17:41.375Z,25.50
2022-08-05T13:18:57.646Z,25.40
2022-08-05T13:20:05.850Z,25.30
2022-08-05T13:21:10.887Z,25.30
2022-08-05T13:22:29.201Z,25.20
2022-08-05T13:23:32.311Z,25.20
2022-08-05T13:24:57.242Z,25.00
2022-08-05T13:26:03.514Z,24.70
2022-08-05T13:27:10.896Z,24.50
2022-08-05T13:28:15.263Z,24.40
2022-08-05T13:29:37.340Z,24.30
2022-08-05T13:30:40.713Z,24.20
2022-08-05T13:32:05.066Z,24.10
2022-08-05T13:33:08.446Z,24.00
2022-08-05T13:34:23.086Z,24.00
2022-08-05T13:35:42.898Z,24.00
2022-08-05T13:36:51.636Z,24.00
2022-08-05T13:37:55.482Z,24.00
2022-08-05T13:39:08.613Z,24.00
2022-08-05T13:40:49.795Z,24.10
2022-08-05T13:41:51.389Z,24.10
2022-08-05T13:42:55.638Z,24.20
2022-08-05T13:43:59.390Z,24.30
2022-08-05T13:45:02.624Z,24.40
2022-08-05T13:46:08.654Z,24.50
2022-08-05T13:47:35.530Z,24.50
2022-08-05T13:48:58.773Z,24.60
2022-08-05T13:50:12.395Z,24.70
2022-08-05T13:51:40.466Z,24.90
2022-08-05T13:52:49.973Z,25.10
2022-08-05T13:53:52.938Z,25.10
2022-08-05T13:55:01.511Z,25.20
2022-08-05T13:56:05.411Z,25.30
2022-08-05T13:57:23.377Z,25.40
2022-08-05T13:58:30.791Z,25.40
2022-08-05T13:59:34.776Z,25.40
2022-08-05T14:00:38.656Z,25.30
2022-08-05T14:01:56.300Z,25.30
2022-08-05T14:03:02.709Z,25.30
2022-08-05T14:04:27.043Z,25.30
2022-08-05T14:06:04.721Z,25.30
2022-08-05T14:07:11.843Z,25.50
2022-08-05T14:08:27.651Z,25.60
2022-08-05T14:09:34.939Z,25.70
2022-08-05T14:10:46.863Z,25.70
2022-08-05T14:12:03.985Z,25.80
2022-08-05T14:13:08.475Z,25.90
2022-08-05T14:14:12.095Z,26.00
2022-08-05T14:16:04.559Z,26.10
2022-08-05T14:16:40.055Z,26.10
2022-08-05T14:17:45.825Z,26.10
2022-08-05T14:18:54.816Z,26.20
2022-08-05T14:20:04.478Z,26.20
2022-08-05T14:22:06.846Z,26.40
2022-08-05T14:22:37.343Z,26.40
2022-08-05T14:23:40.575Z,26.40
2022-08-05T14:24:45.780Z,26.50
2022-08-05T14:25:53.948Z,26.50
2022-08-05T14:27:17.184Z,26.60
2022-08-05T14:28:26.046Z,26.60
2022-08-05T14:29:36.550Z,26.60
2022-08-05T14:30:40.658Z,26.70
2022-08-05T14:32:03.726Z,26.70
2022-08-05T14:33:16.423Z,26.60
2022-08-05T14:34:26.118Z,26.50
2022-08-05T14:35:36.950Z,26.30
2022-08-05T14:36:54.458Z,26.30
2022-08-05T14:37:59.180Z,26.40
2022-08-05T14:39:06.122Z,26.40
2022-08-05T14:40:16.883Z,26.40
2022-08-05T14:41:20.712Z,26.30
2022-08-05T14:42:24.973Z,26.30
2022-08-05T14:43:59.629Z,26.20
2022-08-05T14:44:54.164Z,26.20
2022-08-05T14:46:01.430Z,26.20
2022-08-05T14:47:05.350Z,26.30
2022-08-05T14:48:33.389Z,26.30
2022-08-05T14:49:56.223Z,26.30
2022-08-05T14:51:01.459Z,26.20
2022-08-05T14:52:12.221Z,26.20
2022-08-05T14:53:24.262Z,26.20
2022-08-05T14:54:36.272Z,26.20
2022-08-05T14:55:56.447Z,26.20
2022-08-05T14:56:59.755Z,26.20
2022-08-05T14:58:03.288Z,26.20
2022-08-05T14:59:16.225Z,26.20
2022-08-05T15:00:19.922Z,26.10
2022-08-05T15:01:47.057Z,26.10
2022-08-05T15:02:48.557Z,26.00
2022-08-05T15:03:54.395Z,25.80
2022-08-05T15:04:58.068Z,25.80
2022-08-05T15:06:08.379Z,25.80
2022-08-05T15:08:04.590Z,25.70
2022-08-05T15:08:58.720Z,25.70
2022-08-05T15:10:13.235Z,25.70
2022-08-05T15:11:20.025Z,25.50
2022-08-05T15:12:51.283Z,25.50
2022-08-05T15:13:54.553Z,25.40
2022-08-05T15:14:59.239Z,25.30
2022-08-05T15:16:02.526Z,25.30
2022-08-05T15:17:09.792Z,25.20
2022-08-05T15:18:31.339Z,25.10
2022-08-05T15:19:35.706Z,25.10
2022-08-05T15:20:41.525Z,25.00
2022-08-05T15:21:45.188Z,25.00
2022-08-05T15:22:54.968Z,25.00
2022-08-05T15:23:57.612Z,25.00
2022-08-05T15:25:13.727Z,25.00
2022-08-05T15:26:32.069Z,25.00
2022-08-05T15:27:38.037Z,25.00
2022-08-05T15:28:46.434Z,25.00
2022-08-05T15:29:57.416Z,24.90
2022-08-05T15:31:03.601Z,25.00
2022-08-05T15:32:08.359Z,25.00
2022-08-05T15:33:56.734Z,25.10
2022-08-05T15:34:40.475Z,25.20